Time;durP1;ratioP1;P1;durP2;ratioP2;P2;SDS_P1;SDS_P2;PMS_P1;PMS_P2;Temp;Humidity;BMP_temperature;BMP_pressure;BME280_temperature;BME280_humidity;BME280_pressure;Samples;Min_cycle;Max_cycle;Signal;HPM_P1;HPM_P2
2021/11/19 00:01:40;;;;;;;847.03;793.50;;;;;;;18.05;52.76;101660.53;5057368;28;20438;-35
2021/11/19 00:04:06;;;;;;;841.50;788.15;;;;;;;18.15;52.76;101681.91;5056181;28;20468;-35
2021/11/19 00:06:32;;;;;;;826.38;774.42;;;;;;;18.21;52.71;101696.56;5055768;28;20174;-35
2021/11/19 00:08:59;;;;;;;835.63;782.92;;;;;;;18.19;52.94;101707.31;5056808;28;20040;-35
2021/11/19 00:11:28;;;;;;;850.83;796.58;;;;;;;18.17;52.77;101703.91;5056138;28;20401;-35
2021/11/19 00:13:55;;;;;;;833.78;780.90;;;;;;;18.20;52.83;101701.03;5054794;28;20351;-35
2021/11/19 00:16:23;;;;;;;829.97;777.85;;;;;;;18.17;52.83;101689.78;5071898;28;20025;-35
2021/11/19 00:18:51;;;;;;;833.95;781.78;;;;;;;18.19;52.80;101679.88;5056563;28;20025;-34
2021/11/19 00:21:17;;;;;;;842.83;787.92;;;;;;;18.22;52.89;101688.47;5055335;28;20025;-35
2021/11/19 00:23:45;;;;;;;859.97;804.35;;;;;;;18.34;52.85;101691.16;5055597;28;20040;-35
2021/11/19 00:26:12;;;;;;;863.53;808.38;;;;;;;18.20;52.97;101682.41;5056114;28;20108;-35
2021/11/19 00:28:39;;;;;;;851.72;797.35;;;;;;;18.27;52.79;101687.28;5056516;28;20110;-35
2021/11/19 00:31:06;;;;;;;844.42;791.20;;;;;;;18.22;53.08;101676.97;5055521;28;20029;-35
2021/11/19 00:33:34;;;;;;;830.13;777.25;;;;;;;18.20;52.88;101662.97;5056478;28;20104;-35
2021/11/19 00:36:01;;;;;;;858.28;803.70;;;;;;;18.21;53.12;101654.03;5051985;28;20407;-35
2021/11/19 00:38:28;;;;;;;853.35;799.55;;;;;;;18.19;52.89;101651.50;5053918;28;20033;-35
2021/11/19 00:41:00;;;;;;;831.22;778.50;;;;;;;17.98;53.11;101621.25;5053831;28;20078;-35
2021/11/19 00:43:26;;;;;;;851.63;798.90;;;;;;;18.20;53.16;101653.16;5070403;28;20029;-35
2021/11/19 00:45:53;;;;;;;847.83;793.55;;;;;;;18.22;53.27;101664.53;5052960;28;20025;-35
2021/11/19 00:48:19;;;;;;;829.22;776.15;;;;;;;18.16;53.05;101656.22;5070380;28;20035;-35
2021/11/19 00:50:52;;;;;;;860.83;805.70;;;;;;;18.19;53.06;101672.75;5053591;28;20024;-35
2021/11/19 00:53:18;;;;;;;828.92;776.38;;;;;;;18.29;52.99;101698.63;5042003;28;20032;-35
2021/11/19 00:55:45;;;;;;;829.42;777.25;;;;;;;18.26;52.97;101698.88;5054941;28;20027;-35
2021/11/19 00:58:12;;;;;;;847.58;793.95;;;;;;;18.16;53.17;101683.63;5036392;28;20052;-35
2021/11/19 01:00:42;;;;;;;836.60;783.80;;;;;;;18.20;53.12;101697.53;5063118;28;20359;-35
2021/11/19 01:03:08;;;;;;;833.33;780.97;;;;;;;18.18;52.88;101673.72;5054660;28;20032;-35
2021/11/19 01:05:34;;;;;;;844.22;791.03;;;;;;;18.21;53.05;101680.63;5037223;28;20037;-35
2021/11/19 01:08:00;;;;;;;869.50;814.50;;;;;;;18.20;53.16;101689.56;5054736;28;20415;-35
2021/11/19 01:10:31;;;;;;;857.85;802.88;;;;;;;18.15;53.10;101691.72;5055275;28;20033;-35
2021/11/19 01:12:58;;;;;;;875.85;820.38;;;;;;;18.02;53.18;101649.28;5054908;28;20035;-35
2021/11/19 01:15:33;;;;;;;864.35;808.22;;;;;;;18.22;53.20;101667.19;5069824;28;20040;-35
2021/11/19 01:18:14;;;;;;;861.70;805.83;;;;;;;18.28;52.99;101671.22;5051432;28;20033;-34
2021/11/19 01:20:53;;;;;;;843.15;789.25;;;;;;;18.11;53.36;101653.06;5048206;28;20036;-35
2021/11/19 01:23:21;;;;;;;836.90;783.55;;;;;;;18.03;52.90;101646.50;5049205;28;20025;-35
2021/11/19 01:25:50;;;;;;;836.70;783.28;;;;;;;17.97;53.33;101656.75;5050618;28;20017;-35
2021/11/19 01:28:16;;;;;;;832.80;779.33;;;;;;;18.20;53.12;101685.06;5034383;28;20025;-35
2021/11/19 01:30:49;;;;;;;864.47;809.90;;;;;;;18.19;53.26;101691.38;5061842;28;20029;-35
2021/11/19 01:33:15;;;;;;;844.03;790.00;;;;;;;18.04;53.15;101664.13;5054390;28;20039;-35
2021/11/19 01:35:41;;;;;;;844.38;791.17;;;;;;;18.23;53.12;101694.66;5038150;28;20029;-35
2021/11/19 01:38:07;;;;;;;854.63;800.72;;;;;;;18.08;52.90;101666.56;5053899;28;20123;-35
2021/11/19 01:40:36;;;;;;;857.95;803.65;;;;;;;17.90;52.99;101642.25;5053524;28;20044;-35
2021/11/19 01:43:07;;;;;;;872.22;817.17;;;;;;;18.14;53.24;101680.25;5051857;28;20033;-34
2021/11/19 01:45:42;;;;;;;916.92;856.00;;;;;;;18.13;53.38;101683.84;5068923;28;20032;-35
2021/11/19 01:48:10;;;;;;;869.65;814.17;;;;;;;18.14;53.11;101680.25;5049867;28;20112;-35
2021/11/19 01:50:45;;;;;;;831.33;779.25;;;;;;;18.13;53.16;101685.66;5053964;28;20033;-35
2021/11/19 01:53:16;;;;;;;837.58;784.45;;;;;;;18.20;53.29;101695.72;5068428;28;20557;-35
2021/11/19 01:55:50;;;;;;;905.33;844.95;;;;;;;17.79;54.94;101681.06;5052566;28;20366;-35
2021/11/19 01:58:20;;;;;;;911.33;839.95;;;;;;;17.78;55.55;101705.97;5040278;28;20367;-35
2021/11/19 02:00:54;;;;;;;885.75;825.30;;;;;;;17.62;56.19;101719.53;5052812;28;20039;-35
2021/11/19 02:03:22;;;;;;;882.08;822.85;;;;;;;17.76;55.58;101718.50;5053071;28;20036;-35
2021/11/19 02:06:06;;;;;;;941.33;879.47;;;;;;;17.90;54.77;101714.84;5054381;28;20429;-35
2021/11/19 02:08:35;;;;;;;836.67;783.35;;;;;;;17.93;54.85;101719.94;5069315;28;20031;-35
2021/11/19 02:11:17;;;;;;;848.03;794.35;;;;;;;18.05;54.48;101731.47;5072568;28;20419;-35
2021/11/19 02:13:46;;;;;;;842.78;789.35;;;;;;;18.02;54.26;101739.66;5057195;28;20024;-35
2021/11/19 02:16:25;;;;;;;853.78;799.33;;;;;;;18.07;54.04;101756.09;5053157;28;20124;-35
2021/11/19 02:19:05;;;;;;;844.92;791.65;;;;;;;18.03;54.07;101759.94;5048140;28;20112;-35
2021/11/19 02:21:40;;;;;;;859.67;805.85;;;;;;;18.10;53.95;101763.00;5033739;28;20021;-35
2021/11/19 02:24:14;;;;;;;858.97;804.13;;;;;;;18.11;53.82;101768.19;5045114;28;20351;-35
2021/11/19 02:26:44;;;;;;;846.42;793.25;;;;;;;18.12;53.85;101769.03;5048826;28;20028;-35
2021/11/19 02:29:11;;;;;;;844.25;791.75;;;;;;;18.13;53.80;101776.06;5063462;28;20040;-35
2021/11/19 02:32:00;;;;;;;850.63;796.80;;;;;;;17.94;54.00;101753.50;5043575;28;20028;-35
2021/11/19 02:34:27;;;;;;;841.25;786.38;;;;;;;18.23;53.74;101791.19;5047296;28;20103;-35
2021/11/19 02:37:05;;;;;;;843.35;790.08;;;;;;;18.21;53.62;101792.28;5039531;28;20033;-35
2021/11/19 02:39:35;;;;;;;846.75;792.63;;;;;;;18.12;53.60;101777.00;5051828;28;20032;-35
2021/11/19 02:42:08;;;;;;;867.05;812.72;;;;;;;18.16;53.68;101782.00;5052417;28;20485;-35
2021/11/19 02:44:35;;;;;;;857.55;802.72;;;;;;;18.18;53.41;101766.75;5052246;28;20078;-35
2021/11/19 02:47:07;;;;;;;858.13;803.70;;;;;;;18.17;53.58;101767.72;5054447;28;20032;-35
2021/11/19 02:49:33;;;;;;;844.13;791.03;;;;;;;18.18;53.48;101771.25;5049647;28;20021;-35
2021/11/19 02:51:59;;;;;;;863.15;808.88;;;;;;;18.17;53.50;101773.03;5051932;28;20029;-35
2021/11/19 02:54:27;;;;;;;866.58;812.33;;;;;;;18.15;53.66;101772.31;5050311;28;20029;-35
2021/11/19 02:56:54;;;;;;;850.08;796.05;;;;;;;18.18;53.75;101777.41;5050172;28;20029;-35
2021/11/19 02:59:20;;;;;;;872.28;816.35;;;;;;;18.29;53.41;101783.72;5053269;28;20033;-35
2021/11/19 03:02:01;;;;;;;816.75;765.10;;;;;;;18.19;53.65;101788.88;5054150;28;20017;-35
2021/11/19 03:04:30;;;;;;;858.92;803.97;;;;;;;18.19;53.34;101787.09;5049541;28;20020;-35
2021/11/19 03:06:57;;;;;;;861.25;806.65;;;;;;;18.13;53.39;101771.59;5057331;28;20021;-35
2021/11/19 03:09:26;;;;;;;871.55;816.47;;;;;;;18.17;53.36;101774.84;5052544;28;20028;-35
2021/11/19 03:11:53;;;;;;;846.63;793.03;;;;;;;18.02;53.34;101750.28;5055420;28;20447;-35
2021/11/19 03:14:20;;;;;;;856.95;802.75;;;;;;;18.10;53.30;101760.34;5070120;28;20029;-35
2021/11/19 03:16:46;;;;;;;852.17;798.45;;;;;;;18.18;53.34;101779.22;5053961;28;20039;-35
2021/11/19 03:19:13;;;;;;;844.85;790.47;;;;;;;18.03;53.56;101759.94;5049571;28;20033;-36
2021/11/19 03:21:39;;;;;;;858.17;803.75;;;;;;;18.18;53.66;101771.25;5051809;28;20027;-35
2021/11/19 03:24:06;;;;;;;862.13;807.67;;;;;;;18.21;53.71;101784.31;5055163;28;20050;-35
2021/11/19 03:26:33;;;;;;;829.55;776.58;;;;;;;18.24;53.39;101794.69;5048758;28;20116;-35
2021/11/19 03:29:00;;;;;;;856.22;802.03;;;;;;;18.09;53.44;101780.75;5052856;28;20025;-35
2021/11/19 03:31:26;;;;;;;866.60;811.13;;;;;;;18.14;53.33;101765.31;5052246;28;20040;-35
2021/11/19 03:33:53;;;;;;;857.08;802.78;;;;;;;18.18;53.42;101768.59;5056113;28;20024;-35
2021/11/19 03:36:20;;;;;;;855.75;800.65;;;;;;;18.14;53.32;101756.47;5048394;28;20407;-35
2021/11/19 03:38:48;;;;;;;852.17;797.85;;;;;;;18.00;53.33;101720.31;5052627;28;20108;-35
2021/11/19 03:41:15;;;;;;;859.40;804.80;;;;;;;18.09;53.21;101730.25;5056870;28;20028;-35
2021/11/19 03:44:09;;;;;;;850.15;796.95;;;;;;;18.16;53.26;101733.31;5073032;28;20036;-35
2021/11/19 03:46:48;;;;;;;836.05;783.22;;;;;;;18.17;53.50;101743.78;5054236;28;20040;-35
2021/11/19 03:49:15;;;;;;;846.45;792.97;;;;;;;18.06;53.49;101722.50;5048327;28;20029;-35
2021/11/19 03:52:06;;;;;;;860.45;805.75;;;;;;;18.22;53.65;101741.63;5064973;28;20032;-35
2021/11/19 03:54:33;;;;;;;833.00;780.25;;;;;;;18.20;53.61;101754.19;5042977;28;20047;-35
2021/11/19 03:57:00;;;;;;;854.80;800.88;;;;;;;18.08;53.42;101743.66;5056514;28;20024;-35
2021/11/19 03:59:26;;;;;;;874.85;818.90;;;;;;;18.08;53.48;101738.34;5054957;28;20409;-35
2021/11/19 04:01:54;;;;;;;843.08;789.20;;;;;;;18.19;53.53;101763.16;5055432;28;20048;-36
2021/11/19 04:04:23;;;;;;;850.10;796.42;;;;;;;18.17;53.44;101766.88;5055777;28;20047;-35
2021/11/19 04:06:50;;;;;;;849.10;795.63;;;;;;;18.18;53.58;101773.91;5054159;28;20466;-35
2021/11/19 04:09:16;;;;;;;858.13;803.88;;;;;;;18.13;53.44;101770.75;5054801;28;20025;-35
2021/11/19 04:11:42;;;;;;;851.50;798.42;;;;;;;18.05;53.53;101761.53;5055397;28;20055;-35
2021/11/19 04:14:09;;;;;;;858.95;804.55;;;;;;;18.21;53.59;101781.66;5055420;28;20033;-35
2021/11/19 04:16:38;;;;;;;871.03;815.45;;;;;;;18.17;53.46;101770.38;5056571;28;20107;-35
2021/11/19 04:19:06;;;;;;;851.20;797.03;;;;;;;18.15;53.46;101767.00;5055848;28;20056;-35
2021/11/19 04:21:32;;;;;;;866.25;810.47;;;;;;;18.20;53.41;101766.66;5059801;28;20056;-35
2021/11/19 04:23:59;;;;;;;887.53;830.28;;;;;;;18.19;53.21;101759.63;5076970;28;20425;-35
2021/11/19 04:26:27;;;;;;;862.92;808.47;;;;;;;18.16;53.54;101755.41;5065176;28;20398;-35
2021/11/19 04:28:54;;;;;;;859.10;804.00;;;;;;;18.16;53.39;101752.75;5055523;28;20031;-35
2021/11/19 04:31:21;;;;;;;865.88;810.63;;;;;;;18.16;53.56;101767.84;5056305;28;20025;-35
2021/11/19 04:33:48;;;;;;;853.40;799.50;;;;;;;17.99;53.35;101742.53;5050206;28;20486;-35
2021/11/19 04:36:14;;;;;;;870.40;814.47;;;;;;;18.18;53.24;101766.75;5051445;28;20028;-35
2021/11/19 04:38:40;;;;;;;885.35;829.80;;;;;;;18.09;53.34;101745.38;5042281;28;20028;-36
2021/11/19 04:41:07;;;;;;;917.63;858.03;;;;;;;18.21;53.41;101771.03;5055169;28;20477;-35
2021/11/19 04:43:35;;;;;;;853.65;799.65;;;;;;;18.19;53.44;101789.75;5043976;28;20351;-35
2021/11/19 04:46:02;;;;;;;853.38;799.60;;;;;;;18.19;53.32;101795.06;5055124;28;20036;-35
2021/11/19 04:48:32;;;;;;;853.70;799.03;;;;;;;18.18;53.30;101796.00;5053784;28;20029;-35
2021/11/19 04:50:58;;;;;;;841.22;788.25;;;;;;;18.18;53.07;101800.50;5062683;28;20052;-35
2021/11/19 04:53:25;;;;;;;871.20;816.33;;;;;;;18.10;53.47;101797.53;5054301;28;20029;-35
2021/11/19 04:55:52;;;;;;;845.17;791.35;;;;;;;18.15;53.42;101809.53;5054522;28;20354;-35
2021/11/19 04:58:18;;;;;;;883.08;827.13;;;;;;;18.03;53.37;101802.47;5055213;28;20035;-35
2021/11/19 05:00:47;;;;;;;843.63;790.35;;;;;;;18.15;53.36;101804.22;5054709;28;20032;-35
2021/11/19 05:03:14;;;;;;;851.65;798.15;;;;;;;18.17;53.38;101796.13;5044668;28;20021;-35
2021/11/19 05:05:40;;;;;;;850.03;796.67;;;;;;;18.17;53.45;101810.25;5070126;28;20028;-35
2021/11/19 05:08:07;;;;;;;862.03;807.17;;;;;;;18.14;53.79;101813.16;5052807;28;20029;-35
2021/11/19 05:10:35;;;;;;;890.38;834.03;;;;;;;18.18;53.36;101814.63;5053691;28;20357;-35
2021/11/19 05:13:02;;;;;;;854.47;800.75;;;;;;;18.17;53.33;101801.44;5034961;28;20032;-35
2021/11/19 05:15:29;;;;;;;873.40;817.78;;;;;;;18.16;53.35;101805.06;5071666;28;20573;-35
2021/11/19 05:17:55;;;;;;;878.05;822.97;;;;;;;18.02;53.56;101788.34;5043544;28;20031;-35
2021/11/19 05:20:23;;;;;;;894.50;837.83;;;;;;;18.14;53.24;101813.16;5050058;28;20028;-35
2021/11/19 05:22:49;;;;;;;870.63;815.60;;;;;;;18.13;53.66;101819.44;5049771;28;20381;-35
2021/11/19 05:25:17;;;;;;;882.05;825.85;;;;;;;18.12;53.53;101822.19;5048725;28;20025;-35
2021/11/19 05:27:43;;;;;;;866.22;811.03;;;;;;;18.14;53.43;101821.13;5038290;28;20394;-35
2021/11/19 05:30:10;;;;;;;868.08;813.03;;;;;;;17.94;53.45;101796.03;5052721;28;20477;-35
2021/11/19 05:32:36;;;;;;;841.67;788.75;;;;;;;18.08;53.65;101815.41;5053876;28;20115;-35
2021/11/19 05:35:04;;;;;;;860.15;804.53;;;;;;;18.17;53.38;101828.03;5031584;28;20029;-35
2021/11/19 05:37:30;;;;;;;868.47;813.17;;;;;;;17.90;53.36;101789.25;5054022;28;20080;-35
2021/11/19 05:39:56;;;;;;;864.45;809.47;;;;;;;18.14;53.32;101834.44;5069193;28;20114;-35
2021/11/19 05:42:22;;;;;;;860.83;806.33;;;;;;;18.14;53.40;101839.75;5055209;28;20382;-35
2021/11/19 05:44:49;;;;;;;882.45;826.17;;;;;;;18.12;53.19;101836.38;5054860;28;20446;-35
2021/11/19 05:47:15;;;;;;;928.58;868.78;;;;;;;18.12;53.33;101830.19;5055065;28;20043;-35
2021/11/19 05:49:42;;;;;;;930.80;870.88;;;;;;;18.00;53.41;101814.19;5054222;28;20050;-35
2021/11/19 05:52:09;;;;;;;869.22;814.65;;;;;;;18.10;53.34;101834.75;5053890;28;20040;-35
2021/11/19 05:54:36;;;;;;;874.83;819.88;;;;;;;18.05;53.39;101814.69;5054783;28;20020;-35
2021/11/19 05:57:04;;;;;;;879.35;823.53;;;;;;;18.10;53.56;101817.00;5053608;28;20455;-35
2021/11/19 05:59:30;;;;;;;857.38;802.78;;;;;;;18.07;53.42;101817.25;5050573;28;20103;-35
2021/11/19 06:01:56;;;;;;;848.65;794.95;;;;;;;18.15;53.56;101825.47;5051067;28;20454;-35
2021/11/19 06:04:23;;;;;;;885.00;828.88;;;;;;;18.13;53.18;101816.78;5047247;28;20036;-35
2021/11/19 06:06:49;;;;;;;909.63;851.22;;;;;;;18.11;53.33;101815.22;5048962;28;20021;-35
2021/11/19 06:09:19;;;;;;;876.53;820.70;;;;;;;17.77;53.21;101773.34;5056630;28;20056;-35
2021/11/19 06:11:48;;;;;;;919.67;862.05;;;;;;;18.06;53.55;101815.53;5071488;28;20017;-35
2021/11/19 06:14:19;;;;;;;873.45;817.40;;;;;;;18.07;53.47;101824.34;5069272;28;20029;-35
2021/11/19 06:16:54;;;;;;;860.30;805.73;;;;;;;18.03;53.32;101823.72;5053808;28;20021;-35
2021/11/19 06:19:22;;;;;;;884.60;828.17;;;;;;;17.83;53.18;101790.63;5050365;28;20386;-35
2021/11/19 06:21:51;;;;;;;869.88;815.08;;;;;;;17.96;53.23;101823.34;5040235;28;20018;-35
2021/11/19 06:24:21;;;;;;;863.10;808.08;;;;;;;18.09;53.41;101836.59;5050586;28;20371;-35
2021/11/19 06:26:47;;;;;;;839.53;786.67;;;;;;;17.98;53.41;101825.91;5043113;28;20104;-35
2021/11/19 06:29:14;;;;;;;851.42;797.80;;;;;;;17.92;53.56;101803.25;5053137;28;20029;-35
2021/11/19 06:31:44;;;;;;;868.55;813.67;;;;;;;18.07;53.21;101832.31;5051892;28;20056;-35
2021/11/19 06:34:10;;;;;;;890.60;833.67;;;;;;;17.88;53.18;101803.63;5058019;28;20400;-36
2021/11/19 06:36:40;;;;;;;862.38;807.17;;;;;;;18.03;53.19;101831.69;5065238;28;20028;-35
2021/11/19 06:39:06;;;;;;;860.00;806.08;;;;;;;18.02;53.06;101825.53;5049766;28;20052;-35
2021/11/19 06:41:33;;;;;;;846.38;792.88;;;;;;;17.98;53.17;101825.91;5059710;28;20355;-35
2021/11/19 06:43:59;;;;;;;856.80;802.60;;;;;;;18.03;53.09;101832.56;5076463;28;20028;-35
2021/11/19 06:46:25;;;;;;;924.35;864.50;;;;;;;18.03;53.09;101837.88;5060024;28;20029;-35
2021/11/19 06:48:51;;;;;;;837.85;784.75;;;;;;;18.05;53.13;101835.97;5077053;28;20033;-35
2021/11/19 06:51:18;;;;;;;842.65;789.65;;;;;;;18.07;53.30;101832.31;5058285;28;20094;-35
2021/11/19 06:53:47;;;;;;;865.03;810.72;;;;;;;17.82;53.43;101808.38;5058594;28;20028;-35
2021/11/19 06:56:16;;;;;;;873.33;818.28;;;;;;;18.07;53.43;101842.94;5051068;28;20408;-35
2021/11/19 06:58:43;;;;;;;845.75;792.42;;;;;;;17.93;52.88;101830.72;5061174;28;20029;-35
2021/11/19 07:01:09;;;;;;;869.53;814.35;;;;;;;17.86;53.31;101836.47;5047574;28;20443;-35
2021/11/19 07:03:35;;;;;;;845.75;791.78;;;;;;;17.91;52.99;101846.75;5060115;28;20033;-35
2021/11/19 07:06:01;;;;;;;879.58;823.85;;;;;;;18.01;53.07;101860.22;5075760;28;20025;-35
2021/11/19 07:08:29;;;;;;;874.42;818.45;;;;;;;17.82;53.18;101829.66;5060847;28;20059;-35
2021/11/19 07:11:06;;;;;;;852.03;797.35;;;;;;;17.97;53.07;101851.63;5058325;28;20061;-35
2021/11/19 07:13:32;;;;;;;845.85;792.40;;;;;;;17.99;52.91;101852.34;5056409;28;20029;-35
2021/11/19 07:15:58;;;;;;;837.05;783.65;;;;;;;17.97;53.25;101856.09;5059816;28;20355;-35
2021/11/19 07:18:25;;;;;;;846.58;792.47;;;;;;;17.88;53.04;101839.00;5060013;28;20035;-35
2021/11/19 07:20:51;;;;;;;872.90;818.42;;;;;;;18.01;53.25;101855.75;5071310;28;20020;-35
2021/11/19 07:23:18;;;;;;;820.13;768.63;;;;;;;18.03;52.86;101852.97;5050342;28;20021;-35
2021/11/19 07:25:44;;;;;;;847.63;793.47;;;;;;;18.00;53.05;101862.03;5044772;28;20354;-35
2021/11/19 07:28:11;;;;;;;858.75;804.10;;;;;;;17.99;53.20;101851.50;5059829;28;20099;-35
2021/11/19 07:30:52;;;;;;;865.58;811.05;;;;;;;17.90;53.28;101846.88;5058701;28;20446;-35
2021/11/19 07:33:19;;;;;;;876.47;821.10;;;;;;;17.97;53.25;101872.03;5041798;28;20039;-35
2021/11/19 07:35:45;;;;;;;876.28;820.65;;;;;;;17.96;53.14;101873.84;5059073;28;20032;-35
2021/11/19 07:38:11;;;;;;;857.35;802.13;;;;;;;17.96;53.16;101865.88;5059490;28;20036;-35
2021/11/19 07:40:39;;;;;;;895.42;838.67;;;;;;;17.96;52.96;101872.97;5059686;28;20060;-35
2021/11/19 07:43:05;;;;;;;861.55;807.25;;;;;;;17.98;53.15;101871.09;5075525;28;20024;-35
2021/11/19 07:45:36;;;;;;;867.05;812.17;;;;;;;17.97;52.96;101864.06;5057033;28;20017;-35
2021/11/19 07:48:12;;;;;;;839.33;786.35;;;;;;;17.95;53.23;101856.19;5061778;28;20025;-35
2021/11/19 07:50:39;;;;;;;830.13;778.20;;;;;;;17.87;53.04;101831.97;5046953;28;20036;-35
2021/11/19 07:53:05;;;;;;;882.47;826.72;;;;;;;17.98;52.94;101855.13;5054811;28;20028;-35
2021/11/19 07:55:33;;;;;;;843.90;790.13;;;;;;;17.75;53.12;101816.94;5055690;28;20029;-35
2021/11/19 07:57:59;;;;;;;856.15;801.63;;;;;;;17.94;53.13;101845.69;5054132;28;20036;-35
2021/11/19 08:00:28;;;;;;;850.10;797.00;;;;;;;17.91;53.14;101851.19;5056631;28;20031;-35
2021/11/19 08:02:54;;;;;;;847.13;794.20;;;;;;;17.86;52.99;101846.25;5055310;28;20017;-35
2021/11/19 08:05:22;;;;;;;858.00;803.10;;;;;;;17.88;53.01;101859.41;5072849;28;20033;-35
2021/11/19 08:07:48;;;;;;;852.15;798.40;;;;;;;17.90;53.00;101863.66;5072118;28;20048;-35
2021/11/19 08:10:14;;;;;;;827.65;775.78;;;;;;;17.93;52.87;101867.91;5053533;28;20021;-35
2021/11/19 08:12:41;;;;;;;849.92;796.60;;;;;;;17.75;53.25;101839.03;5053692;28;20033;-35
2021/11/19 08:15:07;;;;;;;858.28;804.17;;;;;;;17.95;52.91;101860.66;5052527;28;20037;-35
2021/11/19 08:17:42;;;;;;;860.33;805.65;;;;;;;17.92;53.07;101853.75;5055241;28;20419;-35
2021/11/19 08:20:11;;;;;;;840.03;786.92;;;;;;;17.88;53.07;101833.69;5071536;28;20051;-35
2021/11/19 08:22:37;;;;;;;850.30;796.10;;;;;;;17.92;52.99;101827.19;5055914;28;20032;-35
2021/11/19 08:25:04;;;;;;;849.22;795.28;;;;;;;17.90;52.99;101822.94;5045520;28;20035;-35
2021/11/19 08:27:34;;;;;;;845.20;791.35;;;;;;;17.89;53.13;101834.53;5052965;28;20024;-35
2021/11/19 08:30:01;;;;;;;862.42;808.10;;;;;;;17.80;53.20;101820.06;5040368;28;20466;-35
2021/11/19 08:32:28;;;;;;;855.45;800.60;;;;;;;17.87;53.21;101821.34;5054535;28;20115;-35
2021/11/19 08:34:54;;;;;;;849.50;796.13;;;;;;;17.86;53.17;101823.16;5055496;28;20099;-35
2021/11/19 08:37:21;;;;;;;850.95;797.17;;;;;;;17.88;52.96;101832.84;5055524;28;20025;-35
2021/11/19 08:39:48;;;;;;;863.00;808.75;;;;;;;17.78;53.10;101814.91;5046279;28;20083;-35
2021/11/19 08:42:17;;;;;;;872.83;817.03;;;;;;;17.77;53.17;101815.84;5055899;28;20036;-35
2021/11/19 08:44:44;;;;;;;872.53;817.00;;;;;;;17.77;53.18;101805.22;5042808;28;20103;-35
2021/11/19 08:47:11;;;;;;;850.03;796.53;;;;;;;17.88;53.16;101812.44;5035590;28;20056;-35
2021/11/19 08:49:38;;;;;;;826.60;774.60;;;;;;;17.90;52.98;101834.41;5046735;28;20033;-35
2021/11/19 08:52:06;;;;;;;861.13;806.35;;;;;;;17.90;53.03;101844.22;5054396;28;20474;-35
2021/11/19 08:54:32;;;;;;;851.67;797.65;;;;;;;17.89;52.93;101838.06;5053883;28;20090;-35
2021/11/19 08:57:03;;;;;;;857.78;803.50;;;;;;;17.58;53.05;101786.25;5055012;28;20078;-35
2021/11/19 08:59:31;;;;;;;834.85;781.72;;;;;;;17.61;53.13;101789.53;5071649;28;20112;-35
2021/11/19 09:01:58;;;;;;;842.70;789.15;;;;;;;17.85;53.22;101826.81;5051929;28;20044;-35
2021/11/19 09:04:25;;;;;;;832.08;779.72;;;;;;;17.85;53.13;101832.13;5034675;28;20034;-35
2021/11/19 09:06:51;;;;;;;858.83;804.40;;;;;;;17.76;53.18;101814.13;5055292;28;20025;-35
2021/11/19 09:09:17;;;;;;;848.50;794.90;;;;;;;17.51;53.12;101761.13;5069072;28;20147;-35
2021/11/19 09:11:44;;;;;;;852.50;799.65;;;;;;;17.86;53.26;101825.81;5054712;28;20025;-35
2021/11/19 09:14:11;;;;;;;859.75;805.42;;;;;;;17.86;53.24;101812.53;5054781;28;20051;-35
2021/11/19 09:17:02;;;;;;;846.40;793.00;;;;;;;17.91;53.00;101828.16;5071301;28;20024;-35
2021/11/19 09:19:34;;;;;;;859.33;805.42;;;;;;;17.86;53.03;101843.59;5036901;28;20061;-35
2021/11/19 09:22:40;;;;;;;832.08;779.25;;;;;;;17.89;53.14;101840.72;5021836;28;20036;-35
2021/11/19 09:25:09;;;;;;;857.40;803.45;;;;;;;17.83;53.25;101841.13;5050041;28;20460;-35
2021/11/19 09:27:36;;;;;;;864.90;809.75;;;;;;;17.83;53.13;101839.28;5064312;28;20072;-35
2021/11/19 09:30:14;;;;;;;875.85;820.20;;;;;;;17.80;53.22;101839.53;5053550;28;20067;-35
2021/11/19 09:32:41;;;;;;;855.38;801.50;;;;;;;17.82;53.14;101839.44;5054408;28;20470;-35
2021/11/19 09:35:08;;;;;;;840.72;788.20;;;;;;;17.60;53.17;101801.13;5055092;28;20409;-35
2021/11/19 09:37:34;;;;;;;878.70;823.30;;;;;;;17.82;53.13;101834.97;5061816;28;20028;-35
2021/11/19 09:40:00;;;;;;;867.03;812.38;;;;;;;17.83;53.21;101826.00;5042118;28;20125;-35
2021/11/19 09:42:42;;;;;;;876.45;820.90;;;;;;;17.89;53.43;101829.22;5054863;28;20450;-35
2021/11/19 09:45:29;;;;;;;846.13;792.97;;;;;;;17.83;53.34;101826.00;5054028;28;20418;-35
2021/11/19 09:48:01;;;;;;;835.15;781.85;;;;;;;17.83;53.20;101836.63;5054336;28;20064;-35
2021/11/19 09:50:48;;;;;;;854.55;800.53;;;;;;;17.83;53.25;101833.13;5052198;28;20443;-35
2021/11/19 09:53:51;;;;;;;867.85;812.97;;;;;;;17.82;53.29;101837.63;5064181;28;20116;-35
2021/11/19 09:56:17;;;;;;;;;;;;;;;17.99;52.58;101843.53;5054031;28;20037;-35
2021/11/19 09:58:52;;;;;;;841.08;788.25;;;;;;;17.61;52.95;101809.97;5069601;28;19927;-35
2021/11/19 10:01:36;;;;;;;844.05;790.78;;;;;;;17.78;53.08;101844.13;5070645;28;20072;-35
2021/11/19 10:04:17;;;;;;;852.95;799.25;;;;;;;17.75;53.32;101841.69;5040684;28;20033;-35
2021/11/19 10:07:01;;;;;;;851.78;798.35;;;;;;;17.78;53.11;101835.28;5034667;28;20031;-35
2021/11/19 10:09:52;;;;;;;869.25;815.55;;;;;;;17.84;53.23;101833.03;5052559;28;20047;-35
2021/11/19 10:12:21;;;;;;;879.65;824.78;;;;;;;17.70;53.44;101814.59;5053103;28;20032;-35
2021/11/19 10:15:06;;;;;;;852.83;799.65;;;;;;;17.81;53.29;101841.22;5053031;28;20033;-35
2021/11/19 10:18:05;;;;;;;853.83;800.13;;;;;;;17.81;53.22;101833.25;5051460;28;20120;-35
2021/11/19 10:20:36;;;;;;;859.70;805.80;;;;;;;17.77;53.30;101842.41;5039992;28;20522;-35
2021/11/19 10:23:19;;;;;;;865.22;810.45;;;;;;;17.49;53.24;101799.25;5040508;28;20044;-35
2021/11/19 10:25:55;;;;;;;854.47;800.42;;;;;;;17.61;53.15;101820.59;5068372;28;20021;-35
2021/11/19 10:28:42;;;;;;;834.83;781.78;;;;;;;17.75;53.29;101839.03;5036205;28;20039;-35
2021/11/19 10:31:10;;;;;;;861.50;807.25;;;;;;;17.75;53.17;101836.38;5053582;28;20033;-35
2021/11/19 10:33:39;;;;;;;838.13;785.35;;;;;;;17.74;53.38;101837.31;5053103;28;20029;-35
2021/11/19 10:36:24;;;;;;;863.80;809.65;;;;;;;17.72;53.31;101855.19;5053405;28;20082;-35
2021/11/19 10:39:11;;;;;;;848.83;795.08;;;;;;;17.74;53.00;101850.59;5026712;28;20028;-35
2021/11/19 10:42:06;;;;;;;847.42;794.03;;;;;;;17.78;53.36;101840.59;5049430;28;20025;-35
2021/11/19 10:44:56;;;;;;;863.15;809.22;;;;;;;17.73;53.60;101840.94;5051124;28;20450;-35
2021/11/19 10:48:13;;;;;;;867.72;812.70;;;;;;;17.78;52.99;101833.50;5049188;28;20077;-35
2021/11/19 10:51:01;;;;;;;829.08;776.53;;;;;;;17.73;53.29;101837.41;5010877;28;20124;-35
2021/11/19 10:53:53;;;;;;;838.67;786.15;;;;;;;17.69;53.43;101826.16;5047255;28;20026;-35
2021/11/19 10:56:28;;;;;;;854.10;801.03;;;;;;;17.72;53.32;101827.78;5038771;28;20025;-35
2021/11/19 10:58:58;;;;;;;841.28;787.88;;;;;;;17.71;53.33;101824.25;5037766;28;20025;-35
2021/11/19 11:01:50;;;;;;;853.88;799.58;;;;;;;17.68;53.31;101830.63;5054262;28;20021;-35
2021/11/19 11:04:28;;;;;;;860.65;806.67;;;;;;;17.68;53.42;101825.31;5054236;28;20100;-35
2021/11/19 11:07:19;;;;;;;848.38;795.90;;;;;;;17.71;53.23;101821.59;5053341;28;20056;-35
2021/11/19 11:09:58;;;;;;;856.47;803.55;;;;;;;17.71;53.21;101826.91;5054257;28;20470;-35